Tripler Army Medical Center, HI

1:55 PM HST on October 24, 2014 (GMT -1000)
Pacific Heights | Change Station
CLOSE
Current Station
Personal Weather Station
Location: Honolulu, HI
Elevation: 528 ft
Nearby Weather Stations

Elev 528 ft 21.33 °N, 157.84 °W | Updated 1 second ago

Scattered Clouds
Scattered Clouds
82.9 °F
Feels Like 88 °F
N
4.0
Wind Variable Wind from East
Gusts 11.0 mph

Today
High -- | Low -- °F
--% Chance of Precip.
Yesterday
High -- | Low -- °F
Precip. -- in
6:30 AM 6:00 PM
New Moon, 1% visible
Pressure 29.99 in
Visibility 10.0 miles
Clouds Few 2600 ft
Scattered Clouds 4000 ft
Scattered Clouds 5000 ft
Heat Index 88 °F
Dew Point 71 °F
Humidity 68%
Rainfall 0.17 in
Snow Depth Not available.
UV 7 out of 12
Pollen Not available.
PM2.5 Good
Flu Activity Sporadic
METAR PHNL 242253Z 06012G20KT 10SM FEW026 SCT040 SCT050 31/21 A2999 RMK AO2 SLP156 VCSH N AND NE T03060206

More Conditions Fewer Conditions

Pressure 29.99 in
Visibility 10.0 miles
Clouds Few 2600 ft
Scattered Clouds 4000 ft
Scattered Clouds 5000 ft
Heat Index 88 °F
Dew Point 71 °F
Humidity 68%
Rainfall 0.17 in
Snow Depth Not available.
UV 7 out of 12
Pollen Not available.
PM2.5 Good
Flu Activity Sporadic
METAR PHNL 242253Z 06012G20KT 10SM FEW026 SCT040 SCT050 31/21 A2999 RMK AO2 SLP156 VCSH N AND NE T03060206

More Conditions Fewer Conditions

10-Day Weather Forecast

Almanac

Astronomy

Oct. 24, 2014 Rise Set
Actual Time 6:30 AM HST 6:00 PM HST
Civil Twilight 6:08 AM HST 6:22 PM HST
Nautical Twilight 5:42 AM HST 6:48 PM HST
Astronomical Twilight 5:16 AM HST 7:14 PM HST
Moon 7:16 AM HST 6:54 PM HST
Length of Visible Light 12h 14m
Length of Day
11h 29m
Tomorrow will be 1m 6s shorter.
New Moon, 1% of the Moon is Illuminated
Today
New Moon
Oct 30
First Quarter
Nov 6
Full
Nov 14
Last Quarter
Nov 22
New

Today's Extremes

State Highs State Lows

Community

WunderPhotos

Upload Photos

1,764,713 photos uploaded!

Nearby

Air Quality

  Air Quality AQ Index Pollutant
Yesterday Good
PM2.5
Current Good
PM2.5
Friday Good
OZONE
Saturday Good
OZONE

Snow Depth

Station Depth Elevation
No new snow has been reported.

Earthquake Activity

City Distance Mag. Time & Date
No recent earthquake activity has been reported nearby.
Minimum magnitude displayed is 2.5.

Coastal Water Temperatures

Place Temperature
No Stations Reporting

Nearby Weather Stations